Time;durP1;ratioP1;P1;durP2;ratioP2;P2;SDS_P1;SDS_P2;PMS_P1;PMS_P2;Temp;Humidity;BMP_temperature;BMP_pressure;BME280_temperature;BME280_humidity;BME280_pressure;Samples;Min_cycle;Max_cycle;Signal;HPM_P1;HPM_P2
2022/12/09 00:02:04;;;;;;;57.95;15.48;;;;;;;-2.06;100.00;100360.97;7394014;19;20547;-61
2022/12/09 00:04:34;;;;;;;63.70;15.25;;;;;;;-2.14;100.00;100364.50;7396530;19;20135;-60
2022/12/09 00:07:06;;;;;;;137.93;17.25;;;;;;;-2.09;100.00;100362.34;7395391;19;20220;-61
2022/12/09 00:09:36;;;;;;;96.13;16.00;;;;;;;-2.06;100.00;100350.84;7394879;19;20135;-61
2022/12/09 00:12:08;;;;;;;71.65;16.73;;;;;;;-2.05;100.00;100355.16;7392359;19;20664;-60
2022/12/09 00:14:38;;;;;;;84.75;16.05;;;;;;;-1.99;100.00;100356.44;7395496;19;20135;-62
2022/12/09 00:17:08;;;;;;;96.20;17.38;;;;;;;-2.09;100.00;100360.72;7393761;19;20954;-60
2022/12/09 00:19:37;;;;;;;69.47;16.67;;;;;;;-2.03;100.00;100357.81;7392981;19;20131;-60
2022/12/09 00:22:07;;;;;;;137.30;20.48;;;;;;;-2.05;100.00;100359.34;7394137;19;20186;-61
2022/12/09 00:24:36;;;;;;;50.53;14.90;;;;;;;-2.04;100.00;100361.13;7395852;19;20148;-61
2022/12/09 00:27:09;;;;;;;124.88;17.95;;;;;;;-2.10;100.00;100358.94;7393156;19;20194;-60
2022/12/09 00:29:39;;;;;;;90.97;16.38;;;;;;;-2.13;100.00;100366.25;7394770;19;20134;-61
2022/12/09 00:32:08;;;;;;;81.53;16.23;;;;;;;-2.05;100.00;100362.75;7390320;19;20201;-60
2022/12/09 00:34:38;;;;;;;58.67;16.33;;;;;;;-1.98;100.00;100365.78;7395303;19;20127;-61
2022/12/09 00:37:08;;;;;;;109.00;17.23;;;;;;;-2.06;100.00;100363.50;7391956;19;20213;-61
2022/12/09 00:39:37;;;;;;;65.75;17.80;;;;;;;-1.97;100.00;100357.44;7392862;19;20131;-60
2022/12/09 00:42:09;;;;;;;86.95;17.80;;;;;;;-1.96;100.00;100359.22;7392745;19;20215;-60
2022/12/09 00:44:39;;;;;;;86.15;17.30;;;;;;;-1.99;100.00;100364.03;7395098;19;20154;-61
2022/12/09 00:47:09;;;;;;;172.05;22.85;;;;;;;-1.97;100.00;100360.88;7393173;19;20194;-58
2022/12/09 00:49:39;;;;;;;36.97;13.80;;;;;;;-2.13;100.00;100366.25;7390635;19;20214;-60
2022/12/09 00:52:08;;;;;;;46.70;13.30;;;;;;;-2.31;100.00;100363.91;7392101;19;20213;-60
2022/12/09 00:54:38;;;;;;;43.63;13.20;;;;;;;-2.36;100.00;100367.66;7393651;19;20135;-60
2022/12/09 00:57:10;;;;;;;36.15;12.70;;;;;;;-2.31;100.00;100358.84;7392429;19;20602;-60
2022/12/09 00:59:40;;;;;;;90.90;14.50;;;;;;;-2.37;100.00;100365.91;7393401;19;20219;-60
2022/12/09 01:02:10;;;;;;;32.88;12.65;;;;;;;-2.36;100.00;100370.19;7392661;19;20190;-61
2022/12/09 01:04:40;;;;;;;30.95;10.50;;;;;;;-2.42;100.00;100379.78;7394591;19;20123;-61
2022/12/09 01:07:11;;;;;;;35.88;12.60;;;;;;;-2.43;100.00;100379.66;7392209;19;20633;-60
2022/12/09 01:09:40;;;;;;;38.35;12.75;;;;;;;-2.43;100.00;100380.53;7390974;19;20131;-61
2022/12/09 01:12:13;;;;;;;40.95;14.05;;;;;;;-2.52;100.00;100388.19;7391203;19;20702;-61
2022/12/09 01:14:42;;;;;;;42.88;13.95;;;;;;;-2.50;100.00;100385.81;7394026;19;20139;-61
2022/12/09 01:17:12;;;;;;;45.38;14.35;;;;;;;-2.48;100.00;100382.66;7394970;19;20565;-60
2022/12/09 01:19:44;;;;;;;40.72;13.43;;;;;;;-2.46;100.00;100390.38;7392509;19;20131;-61
2022/12/09 01:22:14;;;;;;;43.83;15.00;;;;;;;-2.42;100.00;100397.47;7394897;19;20198;-60
2022/12/09 01:24:43;;;;;;;52.08;15.88;;;;;;;-2.40;100.00;100395.97;7397483;19;20137;-61
2022/12/09 01:27:16;;;;;;;47.63;14.90;;;;;;;-2.42;100.00;100397.47;7395229;19;20178;-60
2022/12/09 01:29:46;;;;;;;50.75;14.48;;;;;;;-2.48;100.00;100390.25;7396893;19;20131;-61
2022/12/09 01:32:16;;;;;;;46.45;15.55;;;;;;;-2.41;100.00;100400.88;7395273;19;20187;-59
2022/12/09 01:34:46;;;;;;;68.75;14.40;;;;;;;-2.41;100.00;100398.34;7393182;19;20310;-60
2022/12/09 01:37:16;;;;;;;39.95;15.68;;;;;;;-2.37;100.00;100396.22;7391761;19;20190;-61
2022/12/09 01:39:45;;;;;;;46.38;16.58;;;;;;;-2.33;100.00;100384.75;7391294;19;20593;-62
2022/12/09 01:42:24;;;;;;;70.07;19.92;;;;;;;-2.24;100.00;100387.19;7390732;19;20216;-60
2022/12/09 01:45:29;;;;;;;59.38;18.30;;;;;;;-2.25;100.00;100377.84;7393234;19;20147;-61
2022/12/09 01:48:02;;;;;;;65.85;19.58;;;;;;;-2.28;100.00;100391.09;7393148;19;20181;-60
2022/12/09 01:50:33;;;;;;;47.47;16.70;;;;;;;-2.25;100.00;100386.28;7387234;19;20858;-61
2022/12/09 01:53:02;;;;;;;47.08;16.77;;;;;;;-2.25;100.00;100385.41;7393095;19;20127;-61
2022/12/09 01:55:32;;;;;;;51.15;17.88;;;;;;;-2.21;100.00;100379.88;7390388;19;20656;-61
2022/12/09 01:58:05;;;;;;;47.83;18.20;;;;;;;-2.20;100.00;100387.59;7393587;19;20585;-60
2022/12/09 02:00:34;;;;;;;50.70;17.10;;;;;;;-2.14;100.00;100389.78;7389744;19;20221;-59
2022/12/09 02:03:05;;;;;;;70.93;16.08;;;;;;;-2.22;100.00;100390.72;7392759;19;20137;-59
2022/12/09 02:05:34;;;;;;;57.20;19.65;;;;;;;-2.22;100.00;100384.03;7390027;19;20187;-61
2022/12/09 02:08:04;;;;;;;44.08;17.40;;;;;;;-2.21;100.00;100387.47;7392503;19;20178;-59
2022/12/09 02:10:34;;;;;;;59.33;19.00;;;;;;;-2.16;100.00;100381.16;7388601;19;20198;-60
2022/12/09 02:13:14;;;;;;;43.00;14.77;;;;;;;-2.20;100.00;100376.59;7396441;19;20139;-58
2022/12/09 02:15:46;;;;;;;54.03;18.58;;;;;;;-2.19;100.00;100379.25;7390277;19;20196;-62
2022/12/09 02:18:21;;;;;;;48.92;19.20;;;;;;;-2.15;100.00;100377.91;7392165;19;20134;-61
2022/12/09 02:20:56;;;;;;;56.28;20.75;;;;;;;-2.13;100.00;100380.53;7385448;19;20193;-60
2022/12/09 02:23:30;;;;;;;54.13;17.77;;;;;;;-2.14;100.00;100377.13;7392014;19;20127;-60
2022/12/09 02:26:07;;;;;;;48.40;19.13;;;;;;;-2.09;100.00;100368.31;7389527;19;20205;-59
2022/12/09 02:29:01;;;;;;;62.28;20.90;;;;;;;-2.08;100.00;100370.06;7391072;19;20140;-61
2022/12/09 02:31:47;;;;;;;54.65;19.60;;;;;;;-2.01;100.00;100363.88;7388333;19;20198;-60
2022/12/09 02:34:21;;;;;;;62.10;20.30;;;;;;;-2.00;100.00;100357.19;7390238;19;20127;-60
2022/12/09 02:36:56;;;;;;;65.43;20.25;;;;;;;-1.95;100.00;100358.50;7389814;19;20198;-58
2022/12/09 02:39:31;;;;;;;69.40;20.50;;;;;;;-1.90;100.00;100358.13;7385161;19;20154;-59
2022/12/09 02:42:02;;;;;;;48.53;19.58;;;;;;;-1.89;100.00;100356.47;7391215;19;20201;-60
2022/12/09 02:44:32;;;;;;;59.95;20.50;;;;;;;-1.86;100.00;100346.63;7391297;19;20588;-62
2022/12/09 02:47:02;;;;;;;48.92;17.55;;;;;;;-1.88;100.00;100354.81;7389371;19;20194;-59
2022/12/09 02:49:35;;;;;;;52.67;17.85;;;;;;;-1.86;100.00;100356.72;7393970;19;20147;-60
2022/12/09 02:52:05;;;;;;;52.67;19.90;;;;;;;-1.89;100.00;100359.00;7391905;19;20221;-62
2022/12/09 02:54:35;;;;;;;57.38;21.55;;;;;;;-1.87;100.00;100354.06;7391280;19;20194;-61
2022/12/09 02:57:12;;;;;;;58.78;21.23;;;;;;;-1.75;100.00;100349.19;7388452;19;20559;-59
2022/12/09 02:59:41;;;;;;;46.22;17.85;;;;;;;-1.85;100.00;100348.38;7390209;19;20138;-60
2022/12/09 03:02:18;;;;;;;53.47;19.63;;;;;;;-1.82;100.00;100350.28;7388770;19;20194;-61
2022/12/09 03:05:01;;;;;;;50.88;19.60;;;;;;;-1.78;100.00;100353.19;7390982;19;20131;-61
2022/12/09 03:07:41;;;;;;;51.70;18.80;;;;;;;-1.77;100.00;100352.47;7390008;19;20186;-62
2022/12/09 03:10:19;;;;;;;52.35;19.60;;;;;;;-1.70;100.00;100347.94;7387052;19;20176;-61
2022/12/09 03:12:52;;;;;;;57.45;20.65;;;;;;;-1.62;100.00;100346.91;7392558;19;20137;-61
2022/12/09 03:15:26;;;;;;;47.17;19.38;;;;;;;-1.70;100.00;100347.94;7386685;19;20193;-60
2022/12/09 03:17:58;;;;;;;65.30;19.65;;;;;;;-1.70;100.00;100351.31;7393376;19;20143;-60
2022/12/09 03:20:32;;;;;;;57.08;19.88;;;;;;;-1.64;100.00;100350.97;7389094;19;20225;-59
2022/12/09 03:23:04;;;;;;;65.45;22.42;;;;;;;-1.67;100.00;100348.16;7391944;19;20147;-60
2022/12/09 03:25:36;;;;;;;53.70;18.85;;;;;;;-1.74;100.00;100350.94;7386692;19;20187;-60
2022/12/09 03:28:08;;;;;;;44.95;17.63;;;;;;;-1.72;100.00;100360.44;7387722;19;20131;-60
2022/12/09 03:30:39;;;;;;;59.65;22.10;;;;;;;-1.69;100.00;100352.22;7384268;19;20221;-60
2022/12/09 03:33:10;;;;;;;50.25;18.30;;;;;;;-1.63;100.00;100346.00;7390042;19;20155;-58
2022/12/09 03:35:44;;;;;;;57.60;19.45;;;;;;;-1.63;100.00;100345.16;7387511;19;20201;-58
2022/12/09 03:38:18;;;;;;;57.03;21.13;;;;;;;-1.67;100.00;100353.22;7388889;19;20143;-60
2022/12/09 03:40:49;;;;;;;60.05;21.05;;;;;;;-1.63;100.00;100350.22;7385594;19;20202;-61
2022/12/09 03:43:23;;;;;;;63.92;21.50;;;;;;;-1.60;100.00;100344.53;7387251;19;20123;-60
2022/12/09 03:45:53;;;;;;;52.55;22.08;;;;;;;-1.57;100.00;100347.28;7390879;19;20660;-60
2022/12/09 03:48:23;;;;;;;53.63;19.08;;;;;;;-1.62;100.00;100349.44;7395822;19;20131;-61
2022/12/09 03:50:57;;;;;;;60.75;20.98;;;;;;;-1.75;100.00;100350.03;7393469;19;20198;-60
2022/12/09 03:53:32;;;;;;;54.35;19.58;;;;;;;-1.67;100.00;100348.16;7396512;19;20149;-61
2022/12/09 03:56:04;;;;;;;52.80;18.42;;;;;;;-1.81;100.00;100350.44;7393104;19;20213;-59
2022/12/09 03:58:35;;;;;;;52.67;19.02;;;;;;;-1.78;100.00;100345.59;7394131;19;20139;-60
2022/12/09 04:01:05;;;;;;;51.15;19.30;;;;;;;-1.75;100.00;100350.03;7391853;19;20187;-60
2022/12/09 04:03:36;;;;;;;50.63;18.42;;;;;;;-1.75;100.00;100350.03;7397200;19;20198;-60
2022/12/09 04:06:09;;;;;;;52.30;18.40;;;;;;;-1.81;100.00;100350.44;7393417;19;20211;-60
2022/12/09 04:08:39;;;;;;;89.65;30.30;;;;;;;-0.77;100.00;100344.50;7394973;19;20166;-61
2022/12/09 04:11:09;;;;;;;59.05;21.58;;;;;;;-1.55;100.00;100363.47;7392736;19;20649;-59
2022/12/09 04:13:38;;;;;;;62.17;21.88;;;;;;;-1.59;100.00;100356.41;7395845;19;20127;-60
2022/12/09 04:16:08;;;;;;;60.75;22.92;;;;;;;-1.51;100.00;100356.31;7393055;19;20194;-60
2022/12/09 04:18:38;;;;;;;65.25;24.63;;;;;;;0.01;100.00;100366.66;7395971;19;20183;-60
2022/12/09 04:21:13;;;;;;;62.40;22.50;;;;;;;-1.16;100.00;100369.22;7393484;19;20202;-60
2022/12/09 04:23:43;;;;;;;62.53;22.35;;;;;;;-1.46;100.00;100363.38;7395985;19;20150;-60
2022/12/09 04:26:15;;;;;;;57.83;20.60;;;;;;;-1.42;100.00;100366.31;7394065;19;20191;-59
2022/12/09 04:28:45;;;;;;;64.05;23.90;;;;;;;-1.28;100.00;100369.09;7395577;19;20154;-61
2022/12/09 04:31:15;;;;;;;59.30;22.90;;;;;;;-1.04;100.00;100369.34;7392404;19;20224;-62
2022/12/09 04:33:46;;;;;;;61.67;24.42;;;;;;;-1.10;100.00;100380.75;7395871;19;20127;-60
2022/12/09 04:36:20;;;;;;;53.95;21.65;;;;;;;-1.34;100.00;100384.66;7393160;19;20191;-60
2022/12/09 04:38:50;;;;;;;56.33;21.45;;;;;;;-1.37;100.00;100384.41;7394940;19;20160;-61
2022/12/09 04:41:19;;;;;;;53.17;21.42;;;;;;;-1.39;100.00;100391.00;7390895;19;20222;-61
2022/12/09 04:43:49;;;;;;;53.25;20.73;;;;;;;-1.51;100.00;100400.94;7395524;19;20157;-61
2022/12/09 04:46:19;;;;;;;65.95;21.92;;;;;;;-1.61;100.00;100411.94;7392778;19;20201;-58
2022/12/09 04:48:49;;;;;;;55.63;20.60;;;;;;;-1.70;100.00;100411.19;7395041;19;20226;-61
2022/12/09 04:51:21;;;;;;;52.83;20.77;;;;;;;-1.79;100.00;100407.09;7392283;19;20233;-60
2022/12/09 04:53:51;;;;;;;59.25;23.40;;;;;;;-1.79;100.00;100419.72;7394983;19;20131;-59
2022/12/09 04:56:22;;;;;;;67.55;21.90;;;;;;;-1.85;100.00;100416.66;7391348;19;20186;-60
2022/12/09 04:58:52;;;;;;;54.95;21.63;;;;;;;-1.84;100.00;100410.84;7394357;19;20135;-61
2022/12/09 05:01:24;;;;;;;51.28;20.92;;;;;;;-1.72;100.00;100413.56;7391898;19;20234;-60
2022/12/09 05:03:59;;;;;;;54.00;20.20;;;;;;;-1.83;100.00;100421.88;7395610;19;20138;-60
2022/12/09 05:06:32;;;;;;;58.33;21.15;;;;;;;-1.83;100.00;100417.72;7391958;19;20190;-60
2022/12/09 05:09:02;;;;;;;55.05;22.33;;;;;;;-1.70;100.00;100417.09;7394462;19;20202;-61
2022/12/09 05:11:32;;;;;;;49.35;21.63;;;;;;;-1.75;100.00;100422.53;7393202;19;20202;-60
2022/12/09 05:14:02;;;;;;;55.85;22.17;;;;;;;-1.82;100.00;100419.47;7395068;19;20138;-61
2022/12/09 05:16:32;;;;;;;59.92;22.30;;;;;;;-1.62;100.00;100432.94;7393979;19;20674;-61
2022/12/09 05:19:02;;;;;;;51.33;19.58;;;;;;;-1.79;100.00;100424.78;7393805;19;20143;-60
2022/12/09 05:21:34;;;;;;;58.45;22.85;;;;;;;-1.81;100.00;100431.38;7390042;19;20675;-60
2022/12/09 05:24:04;;;;;;;62.65;24.48;;;;;;;-1.60;100.00;100433.09;7394203;19;20140;-59
2022/12/09 05:26:34;;;;;;;60.60;23.10;;;;;;;-1.65;100.00;100425.97;7391106;19;20565;-61
2022/12/09 05:29:04;;;;;;;50.85;23.23;;;;;;;-1.76;100.00;100429.22;7393683;19;20552;-60
2022/12/09 05:31:34;;;;;;;50.72;21.45;;;;;;;-1.13;100.00;100437.84;7390308;19;20231;-59
2022/12/09 05:34:04;;;;;;;56.05;22.02;;;;;;;-1.17;100.00;100434.19;7394080;19;20597;-60
2022/12/09 05:36:37;;;;;;;49.60;20.65;;;;;;;-1.48;100.00;100435.75;7391596;19;20190;-60
2022/12/09 05:39:07;;;;;;;56.28;23.55;;;;;;;-0.89;100.00;100435.56;7393184;19;20186;-60
2022/12/09 05:41:36;;;;;;;58.63;23.23;;;;;;;-1.27;100.00;100432.50;7389241;19;20202;-60
2022/12/09 05:44:06;;;;;;;52.45;22.50;;;;;;;-1.41;100.00;100438.06;7393634;19;20134;-60
2022/12/09 05:46:35;;;;;;;50.78;20.60;;;;;;;-1.47;100.00;100435.91;7389527;19;20277;-60
2022/12/09 05:49:05;;;;;;;63.47;20.77;;;;;;;-1.44;100.00;100432.75;7393553;19;20135;-60
2022/12/09 05:51:38;;;;;;;48.90;19.98;;;;;;;-1.44;100.00;100432.75;7390389;19;20555;-59
2022/12/09 05:54:08;;;;;;;48.78;20.95;;;;;;;-1.47;100.00;100435.00;7393773;19;20140;-59
2022/12/09 05:56:37;;;;;;;51.17;19.88;;;;;;;-1.50;100.00;100434.00;7390618;19;20265;-60
2022/12/09 05:59:15;;;;;;;53.67;21.88;;;;;;;-1.58;100.00;100439.16;7392575;19;20143;-60
2022/12/09 06:01:46;;;;;;;49.67;20.38;;;;;;;-1.56;100.00;100440.16;7391215;19;20198;-62
2022/12/09 06:04:15;;;;;;;47.75;21.38;;;;;;;-1.51;100.00;100441.44;7393109;19;20131;-60
2022/12/09 06:06:48;;;;;;;65.25;22.00;;;;;;;-1.51;100.00;100444.88;7388346;19;20207;-59
2022/12/09 06:09:18;;;;;;;49.63;22.30;;;;;;;-1.38;100.00;100436.66;7389913;19;20131;-60
2022/12/09 06:11:48;;;;;;;50.75;22.67;;;;;;;-1.45;100.00;100441.97;7390442;19;20215;-60
2022/12/09 06:14:17;;;;;;;44.58;20.65;;;;;;;-1.44;100.00;100441.22;7392985;19;20127;-61
2022/12/09 06:16:47;;;;;;;52.17;22.08;;;;;;;-1.39;100.00;100441.63;7389901;19;20194;-61
2022/12/09 06:19:17;;;;;;;55.00;22.77;;;;;;;-1.36;100.00;100441.88;7391773;19;20473;-61
2022/12/09 06:21:50;;;;;;;50.88;21.23;;;;;;;-1.39;100.00;100437.44;7388801;19;20202;-60
2022/12/09 06:24:19;;;;;;;42.80;18.73;;;;;;;-1.41;100.00;100440.59;7392432;19;20154;-59
2022/12/09 06:26:49;;;;;;;42.28;19.20;;;;;;;-1.41;100.00;100433.00;7390019;19;20886;-61
2022/12/09 06:29:20;;;;;;;42.60;19.58;;;;;;;-1.40;100.00;100438.19;7391530;19;20496;-60
2022/12/09 06:31:49;;;;;;;45.63;18.58;;;;;;;-1.35;100.00;100443.63;7388420;19;20679;-59
2022/12/09 06:34:19;;;;;;;48.55;19.65;;;;;;;-1.37;100.00;100443.50;7392472;19;20130;-59
2022/12/09 06:36:51;;;;;;;41.67;19.50;;;;;;;-1.34;100.00;100442.88;7389406;19;20205;-61
2022/12/09 06:39:21;;;;;;;47.20;19.63;;;;;;;-1.33;100.00;100437.06;7391602;19;20134;-60
2022/12/09 06:41:51;;;;;;;51.40;21.40;;;;;;;-1.33;100.00;100437.06;7388707;19;20253;-60
2022/12/09 06:44:21;;;;;;;55.42;21.38;;;;;;;-1.29;100.00;100436.56;7391379;19;20131;-60
2022/12/09 06:46:52;;;;;;;51.53;21.55;;;;;;;-1.28;100.00;100437.44;7389076;19;20597;-61
2022/12/09 06:49:22;;;;;;;46.28;21.75;;;;;;;-1.28;100.00;100435.78;7391503;19;20141;-61
2022/12/09 06:51:55;;;;;;;44.83;20.70;;;;;;;-1.19;100.00;100435.69;7389000;19;20739;-62
2022/12/09 06:54:25;;;;;;;49.63;21.58;;;;;;;-1.16;100.00;100432.53;7391368;19;20130;-62
2022/12/09 06:56:55;;;;;;;49.15;21.10;;;;;;;-1.16;100.00;100440.13;7388511;19;20193;-58
2022/12/09 06:59:24;;;;;;;47.22;20.25;;;;;;;-1.12;100.00;100434.56;7390776;19;20147;-59
2022/12/09 07:01:54;;;;;;;57.22;21.00;;;;;;;-1.22;100.00;100433.78;7389888;19;20201;-60
2022/12/09 07:04:24;;;;;;;48.95;20.65;;;;;;;-1.25;100.00;100436.06;7391168;19;20127;-60
2022/12/09 07:06:57;;;;;;;48.25;20.83;;;;;;;-1.23;100.00;100437.06;7392511;19;20644;-58
2022/12/09 07:09:26;;;;;;;48.40;20.00;;;;;;;-1.24;100.00;100442.91;7390395;19;20131;-62
2022/12/09 07:11:56;;;;;;;45.58;21.05;;;;;;;-1.18;100.00;100436.56;7388436;19;20198;-60
2022/12/09 07:14:26;;;;;;;52.45;20.52;;;;;;;-1.22;100.00;100438.84;7390767;19;20206;-58
2022/12/09 07:16:56;;;;;;;39.03;16.25;;;;;;;-1.26;100.00;100434.28;7388675;19;20555;-57
2022/12/09 07:19:25;;;;;;;43.60;19.30;;;;;;;-1.23;100.00;100444.66;7391733;19;20906;-60
2022/12/09 07:21:58;;;;;;;39.53;17.63;;;;;;;-1.17;100.00;100448.47;7394307;19;20198;-60
2022/12/09 07:24:28;;;;;;;35.40;15.73;;;;;;;-1.18;100.00;100447.56;7398105;19;20203;-61
2022/12/09 07:26:57;;;;;;;33.95;16.50;;;;;;;-1.14;100.00;100451.25;7398497;19;20190;-60
2022/12/09 07:29:36;;;;;;;39.65;16.17;;;;;;;-1.16;100.00;100450.25;7397212;19;20131;-60
2022/12/09 07:32:07;;;;;;;39.83;14.13;;;;;;;-1.16;100.00;100456.22;7395554;19;20847;-57
2022/12/09 07:34:36;;;;;;;38.13;14.27;;;;;;;-1.16;100.00;100457.84;7397448;19;20131;-57
2022/12/09 07:37:09;;;;;;;33.78;15.30;;;;;;;-1.17;100.00;100462.03;7396712;19;20198;-60
2022/12/09 07:39:39;;;;;;;37.65;15.27;;;;;;;-1.16;100.00;100460.38;7397101;19;20139;-60
2022/12/09 07:42:08;;;;;;;33.05;15.27;;;;;;;-1.14;100.00;100461.38;7394165;19;20194;-60
2022/12/09 07:44:38;;;;;;;33.75;15.30;;;;;;;-1.06;100.00;100468.00;7397387;19;20187;-60
2022/12/09 07:47:08;;;;;;;32.03;14.52;;;;;;;-1.13;100.00;100475.84;7395255;19;20194;-61
2022/12/09 07:49:38;;;;;;;30.75;12.98;;;;;;;-1.16;100.00;100475.56;7397025;19;20139;-61
2022/12/09 07:52:11;;;;;;;33.00;13.95;;;;;;;-1.11;100.00;100486.97;7394487;19;20194;-60
2022/12/09 07:54:41;;;;;;;36.97;15.68;;;;;;;-1.06;100.00;100487.34;7397617;19;20701;-60
2022/12/09 07:57:11;;;;;;;47.08;14.90;;;;;;;-1.05;100.00;100489.13;7395150;19;20778;-62
2022/12/09 07:59:40;;;;;;;36.80;16.02;;;;;;;-1.00;100.00;100493.84;7400311;19;20490;-59
2022/12/09 08:02:11;;;;;;;38.22;15.25;;;;;;;-1.02;100.00;100495.34;7393745;19;20194;-60
2022/12/09 08:04:40;;;;;;;34.00;15.10;;;;;;;-0.96;100.00;100495.84;7396973;19;20126;-63
2022/12/09 08:07:13;;;;;;;33.58;14.50;;;;;;;-0.94;100.00;100498.53;7394215;19;20186;-62
2022/12/09 08:09:43;;;;;;;28.25;14.23;;;;;;;-0.89;100.00;100491.28;7395755;19;20127;-60
2022/12/09 08:12:13;;;;;;;38.70;14.38;;;;;;;-0.89;100.00;100496.38;7393507;19;20657;-60
2022/12/09 08:14:43;;;;;;;33.88;13.85;;;;;;;-0.90;100.00;100495.50;7396359;19;20815;-60
2022/12/09 08:17:13;;;;;;;35.85;15.85;;;;;;;-0.84;100.00;100493.47;7389103;19;20203;-62
2022/12/09 08:19:43;;;;;;;29.98;14.13;;;;;;;-0.83;100.00;100491.81;7395430;19;20131;-62
2022/12/09 08:22:16;;;;;;;34.17;14.90;;;;;;;-0.94;100.00;100490.06;7393383;19;20196;-60
2022/12/09 08:24:45;;;;;;;38.40;15.73;;;;;;;-0.94;100.00;100487.53;7396046;19;20597;-61
2022/12/09 08:27:15;;;;;;;37.67;15.10;;;;;;;-0.95;100.00;100491.69;7393121;19;20257;-62
2022/12/09 08:29:44;;;;;;;32.55;14.48;;;;;;;-0.96;100.00;100484.84;7394978;19;20640;-62
2022/12/09 08:32:14;;;;;;;39.50;15.50;;;;;;;-0.93;100.00;100479.16;7390716;19;20198;-60
2022/12/09 08:34:44;;;;;;;38.88;17.08;;;;;;;-0.92;100.00;100491.06;7395678;19;20131;-59
2022/12/09 08:37:16;;;;;;;38.10;16.90;;;;;;;-0.90;100.00;100484.47;7393182;19;20680;-60
2022/12/09 08:39:46;;;;;;;43.95;17.80;;;;;;;-0.93;100.00;100484.22;7395037;19;20585;-61
2022/12/09 08:42:15;;;;;;;41.55;17.80;;;;;;;-1.00;100.00;100486.25;7392821;19;20208;-61
2022/12/09 08:44:45;;;;;;;45.70;19.98;;;;;;;-0.99;100.00;100490.53;7395497;19;20601;-60
2022/12/09 08:47:14;;;;;;;48.95;20.40;;;;;;;-1.01;100.00;100489.53;7392815;19;20198;-60
2022/12/09 08:49:44;;;;;;;43.45;18.67;;;;;;;-1.01;100.00;100481.94;7394534;19;20147;-60
2022/12/09 08:52:16;;;;;;;47.05;19.10;;;;;;;-1.00;100.00;100483.72;7392652;19;20186;-61
2022/12/09 08:54:46;;;;;;;50.78;19.95;;;;;;;-1.05;100.00;100472.31;7395453;19;20143;-61
2022/12/09 08:57:16;;;;;;;49.88;21.13;;;;;;;-1.06;100.00;100473.06;7392229;19;20194;-60
2022/12/09 08:59:46;;;;;;;53.13;20.83;;;;;;;-1.10;100.00;100473.56;7394855;19;20131;-61
2022/12/09 09:02:16;;;;;;;55.40;21.15;;;;;;;-1.04;100.00;100475.72;7395179;19;20194;-61
2022/12/09 09:04:46;;;;;;;51.53;21.95;;;;;;;-1.03;100.00;100467.38;7392759;19;20131;-62
2022/12/09 09:07:19;;;;;;;56.92;22.05;;;;;;;-1.02;100.00;100470.00;7392442;19;20265;-62
2022/12/09 09:09:49;;;;;;;57.53;21.65;;;;;;;-1.06;100.00;100468.00;7394064;19;20135;-54
2022/12/09 09:12:19;;;;;;;51.92;20.70;;;;;;;-1.04;100.00;100470.66;7391760;19;20201;-61
2022/12/09 09:14:49;;;;;;;48.03;20.23;;;;;;;-1.08;100.00;100466.97;7394304;19;20154;-60
2022/12/09 09:17:18;;;;;;;55.75;20.85;;;;;;;-1.00;100.00;100468.50;7396610;19;20191;-61
2022/12/09 09:19:48;;;;;;;54.88;21.08;;;;;;;-0.96;100.00;100465.44;7393973;19;20131;-60
2022/12/09 09:22:21;;;;;;;56.38;20.40;;;;;;;-0.98;100.00;100472.03;7391938;19;20627;-60
2022/12/09 09:24:52;;;;;;;51.65;20.48;;;;;;;-0.93;100.00;100458.88;7392067;19;20183;-61
2022/12/09 09:27:23;;;;;;;48.08;20.80;;;;;;;-0.93;100.00;100458.88;7392605;19;20190;-61
2022/12/09 09:29:52;;;;;;;52.85;20.30;;;;;;;-0.90;100.00;100459.13;7393652;19;20139;-61
2022/12/09 09:32:22;;;;;;;53.90;20.95;;;;;;;-0.90;100.00;100459.13;7391031;19;20216;-62
2022/12/09 09:34:54;;;;;;;48.47;20.58;;;;;;;-0.92;100.00;100455.59;7394378;19;20127;-61
2022/12/09 09:37:26;;;;;;;60.25;21.90;;;;;;;-0.85;100.00;100451.16;7387967;19;20186;-61
2022/12/09 09:39:56;;;;;;;52.92;21.02;;;;;;;-0.73;100.00;100458.88;7392960;19;20137;-60
2022/12/09 09:42:32;;;;;;;58.47;21.55;;;;;;;-0.67;100.00;100448.34;7392624;19;20209;-63
2022/12/09 09:45:05;;;;;;;53.25;21.15;;;;;;;-0.63;100.00;100449.47;7389543;19;20152;-61
2022/12/09 09:47:38;;;;;;;52.08;20.83;;;;;;;-0.76;100.00;100453.56;7393110;19;20623;-60
2022/12/09 09:50:21;;;;;;;50.65;20.58;;;;;;;-0.75;100.00;100450.28;7390700;19;20126;-61
2022/12/09 09:52:55;;;;;;;53.10;20.20;;;;;;;-0.75;100.00;100452.81;7397646;19;20672;-60
2022/12/09 09:55:35;;;;;;;44.33;19.42;;;;;;;-0.68;100.00;100444.94;7390443;19;20265;-61
2022/12/09 09:58:13;;;;;;;50.08;18.98;;;;;;;-0.69;100.00;100438.13;7393179;19;20138;-62
2022/12/09 10:00:49;;;;;;;52.95;20.50;;;;;;;-0.62;100.00;100438.63;7389817;19;20229;-60
2022/12/09 10:03:27;;;;;;;51.72;20.45;;;;;;;-0.54;100.00;100435.03;7395242;19;20130;-61
2022/12/09 10:06:00;;;;;;;54.42;20.45;;;;;;;-0.37;100.00;100433.00;7390151;19;20213;-61
2022/12/09 10:08:41;;;;;;;47.40;20.38;;;;;;;-0.46;100.00;100434.00;7394584;19;20222;-60
2022/12/09 10:11:18;;;;;;;49.90;20.52;;;;;;;-0.32;100.00;100426.63;7390172;19;20204;-61
2022/12/09 10:13:52;;;;;;;45.20;18.88;;;;;;;-0.38;100.00;100437.16;7393387;19;20157;-62
2022/12/09 10:16:26;;;;;;;49.33;19.92;;;;;;;-0.35;100.00;100432.34;7391078;19;20197;-62
2022/12/09 10:19:01;;;;;;;43.00;18.30;;;;;;;-0.32;100.00;100436.75;7391907;19;20127;-62
2022/12/09 10:21:40;;;;;;;44.40;19.02;;;;;;;-0.31;100.00;100428.41;7389770;19;20201;-61
2022/12/09 10:24:22;;;;;;;42.75;16.23;;;;;;;-0.22;100.00;100431.66;7391650;19;20187;-61
2022/12/09 10:27:05;;;;;;;44.50;17.33;;;;;;;-0.27;100.00;100435.47;7389237;19;20201;-61
2022/12/09 10:29:44;;;;;;;45.03;18.30;;;;;;;-0.15;100.00;100426.31;7391574;19;20155;-61
2022/12/09 10:32:16;;;;;;;38.35;17.30;;;;;;;-0.14;100.00;100429.75;7388739;19;20289;-62
2022/12/09 10:34:48;;;;;;;41.40;17.20;;;;;;;-0.20;100.00;100432.66;7395831;19;20589;-59
2022/12/09 10:37:30;;;;;;;40.25;18.50;;;;;;;-0.18;100.00;100428.63;7389484;19;20201;-62
2022/12/09 10:40:15;;;;;;;40.25;18.50;;;;;;;-0.14;100.00;100432.28;7387268;19;20200;-61
2022/12/09 10:45:30;;;;;;;59.40;22.25;;;;;;;-0.02;100.00;100427.28;7387541;19;20599;-61
2022/12/09 10:48:29;;;;;;;45.60;20.25;;;;;;;0.12;100.00;100431.78;7391974;19;20243;-61
2022/12/09 10:51:04;;;;;;;40.67;16.42;;;;;;;0.13;100.00;100433.59;7388881;19;20198;-62
2022/12/09 10:53:35;;;;;;;142.40;57.78;;;;;;;1.40;100.00;100410.88;7390573;19;20129;-61
2022/12/09 10:56:08;;;;;;;43.13;19.03;;;;;;;1.71;100.00;100415.63;7388335;19;20257;-61
2022/12/09 10:58:37;;;;;;;34.77;15.93;;;;;;;1.09;100.00;100431.47;7390272;19;20387;-62
2022/12/09 11:01:09;;;;;;;33.23;14.67;;;;;;;0.65;100.00;100435.84;7388265;19;20411;-60
2022/12/09 11:03:42;;;;;;;31.20;15.23;;;;;;;0.45;100.00;100441.94;7390875;19;20729;-62
2022/12/09 11:06:23;;;;;;;35.53;15.80;;;;;;;0.38;100.00;100447.31;7389586;19;20738;-62
2022/12/09 11:08:55;;;;;;;32.40;16.00;;;;;;;0.43;100.00;100445.09;7394055;19;20131;-61
2022/12/09 11:11:45;;;;;;;32.13;15.23;;;;;;;0.51;100.00;100456.75;7387682;19;20435;-62
2022/12/09 11:14:21;;;;;;;34.83;14.87;;;;;;;0.45;100.00;100457.16;7391003;19;20404;-61
2022/12/09 11:16:54;;;;;;;32.22;14.50;;;;;;;0.52;100.00;100458.53;7391560;19;20450;-61
2022/12/09 11:19:31;;;;;;;34.57;14.67;;;;;;;0.55;100.00;100466.38;7390093;19;20126;-61
2022/12/09 11:22:16;;;;;;;26.47;12.80;;;;;;;0.57;100.00;100464.84;7389951;19;20443;-61
2022/12/09 11:24:46;;;;;;;35.45;13.70;;;;;;;0.61;100.00;100464.31;7389712;19;20402;-61
2022/12/09 11:27:33;;;;;;;28.33;13.50;;;;;;;0.55;100.00;100474.00;7387898;19;20211;-59